Time;durP1;ratioP1;P1;durP2;ratioP2;P2;SDS_P1;SDS_P2;PMS_P1;PMS_P2;Temp;Humidity;BMP_temperature;BMP_pressure;BME280_temperature;BME280_humidity;BME280_pressure;Samples;Min_cycle;Max_cycle;Signal;HPM_P1;HPM_P2
2021/06/26 00:01:25;;;;;;;13.67;12.27;;;16.50;99.90;;;;;;5002042;28;20199;-71
2021/06/26 00:03:51;;;;;;;14.47;13.27;;;16.50;99.90;;;;;;5021956;28;20196;-72
2021/06/26 00:06:17;;;;;;;14.20;12.90;;;16.50;99.90;;;;;;5013857;28;20187;-73
2021/06/26 00:08:42;;;;;;;14.80;13.50;;;16.50;99.90;;;;;;5020549;28;20180;-72
2021/06/26 00:11:08;;;;;;;13.83;12.50;;;16.50;99.90;;;;;;5022557;28;20409;-71
2021/06/26 00:13:33;;;;;;;15.13;13.73;;;16.50;99.90;;;;;;5029512;28;20210;-71
2021/06/26 00:15:59;;;;;;;13.97;12.67;;;16.40;99.90;;;;;;5013791;28;20672;-71
2021/06/26 00:18:25;;;;;;;13.97;12.87;;;16.40;99.90;;;;;;5008183;28;20258;-72
2021/06/26 00:20:51;;;;;;;14.97;13.70;;;16.50;99.90;;;;;;5009542;28;20367;-71
2021/06/26 00:23:17;;;;;;;14.40;13.10;;;16.40;99.90;;;;;;5012200;28;20239;-72
2021/06/26 00:25:42;;;;;;;14.40;13.10;;;16.50;99.90;;;;;;5019357;28;20447;-73
2021/06/26 00:28:08;;;;;;;15.60;14.10;;;16.40;99.90;;;;;;5033734;28;20204;-73
2021/06/26 00:30:34;;;;;;;15.10;13.80;;;16.40;99.90;;;;;;5029464;28;20195;-71
2021/06/26 00:33:00;;;;;;;13.87;12.67;;;16.50;99.90;;;;;;5004458;28;20292;-72
2021/06/26 00:35:25;;;;;;;14.47;13.07;;;16.40;99.90;;;;;;5004307;28;20614;-71
2021/06/26 00:37:51;;;;;;;14.27;12.77;;;16.40;99.90;;;;;;5016836;28;20195;-71
2021/06/26 00:40:17;;;;;;;14.30;13.00;;;16.40;99.90;;;;;;5019012;28;20204;-71
2021/06/26 00:42:44;;;;;;;14.30;13.03;;;16.30;99.90;;;;;;5019874;28;20238;-73
2021/06/26 00:45:12;;;;;;;14.90;13.50;;;16.30;99.90;;;;;;5004839;28;20180;-72
2021/06/26 00:47:39;;;;;;;13.53;12.23;;;16.30;99.90;;;;;;5016720;28;20502;-72
2021/06/26 00:50:13;;;;;;;14.03;12.80;;;16.30;99.90;;;;;;5011853;28;20444;-72
2021/06/26 00:52:38;;;;;;;14.80;13.60;;;16.30;99.90;;;;;;5017498;28;20557;-71
2021/06/26 00:55:05;;;;;;;14.37;13.07;;;16.30;99.90;;;;;;5013121;28;20517;-72
2021/06/26 00:57:33;;;;;;;13.87;12.47;;;16.30;99.90;;;;;;5020248;28;20268;-72
2021/06/26 01:00:06;;;;;;;14.47;13.17;;;16.20;99.90;;;;;;5011787;28;20463;-71
2021/06/26 01:02:32;;;;;;;13.20;12.00;;;16.30;99.90;;;;;;5016168;28;20942;-71
2021/06/26 01:04:57;;;;;;;13.33;12.03;;;16.20;99.90;;;;;;5012730;28;20433;-74
2021/06/26 01:07:23;;;;;;;13.20;12.00;;;16.20;99.90;;;;;;5011122;28;20196;-71
2021/06/26 01:09:49;;;;;;;14.20;12.90;;;16.20;99.90;;;;;;5011949;28;20257;-71
2021/06/26 01:12:14;;;;;;;13.70;12.40;;;16.20;99.90;;;;;;5014676;28;20183;-70
2021/06/26 01:14:40;;;;;;;14.40;13.10;;;16.20;99.90;;;;;;5017150;28;20580;-71
2021/06/26 01:17:09;;;;;;;15.00;13.70;;;16.20;99.90;;;;;;5015675;28;20188;-72
2021/06/26 01:19:36;;;;;;;14.50;13.07;;;16.10;99.90;;;;;;5011345;28;20192;-72
2021/06/26 01:22:06;;;;;;;15.10;13.70;;;16.10;99.90;;;;;;5009387;28;20453;-71
2021/06/26 01:24:37;;;;;;;14.33;13.03;;;16.10;99.90;;;;;;5020864;28;20433;-71
2021/06/26 01:27:03;;;;;;;15.20;13.90;;;16.10;99.90;;;;;;5020647;28;20425;-72
2021/06/26 01:29:29;;;;;;;13.90;12.73;;;16.00;99.90;;;;;;5019740;28;20445;-72
2021/06/26 01:31:56;;;;;;;15.07;13.70;;;15.90;99.90;;;;;;5003275;28;20558;-72
2021/06/26 01:34:22;;;;;;;15.60;14.13;;;16.00;99.90;;;;;;5008200;28;20815;-72
2021/06/26 01:36:48;;;;;;;14.33;13.13;;;15.90;99.90;;;;;;5015390;28;20517;-72
2021/06/26 01:39:13;;;;;;;17.10;14.10;;;15.90;99.90;;;;;;5018139;28;21017;-72
2021/06/26 01:41:39;;;;;;;15.00;13.63;;;15.80;99.90;;;;;;5002595;28;20238;-72
2021/06/26 01:44:05;;;;;;;15.23;13.93;;;15.80;99.90;;;;;;5014329;28;20302;-71
2021/06/26 01:46:32;;;;;;;14.77;13.37;;;15.80;99.90;;;;;;5019112;28;20230;-72
2021/06/26 01:49:12;;;;;;;15.87;14.27;;;15.70;99.90;;;;;;5005727;28;20852;-72
2021/06/26 01:51:39;;;;;;;15.30;13.87;;;15.70;99.90;;;;;;5009896;28;20444;-72
2021/06/26 01:54:06;;;;;;;14.40;13.10;;;15.60;99.90;;;;;;4999645;28;20448;-72
2021/06/26 01:56:32;;;;;;;14.87;13.30;;;15.60;99.90;;;;;;5014830;28;20941;-72
2021/06/26 01:58:58;;;;;;;14.60;13.30;;;15.60;99.90;;;;;;5011057;28;20428;-72
2021/06/26 02:01:24;;;;;;;15.10;13.60;;;15.60;99.90;;;;;;5016923;28;20869;-72
2021/06/26 02:03:50;;;;;;;14.93;13.53;;;15.50;99.90;;;;;;5011445;28;20526;-72
2021/06/26 02:06:15;;;;;;;15.67;14.17;;;15.50;99.90;;;;;;5012916;28;20177;-71
2021/06/26 02:08:41;;;;;;;15.33;13.93;;;15.50;99.90;;;;;;5018862;28;20557;-71
2021/06/26 02:11:06;;;;;;;13.50;12.17;;;15.40;99.90;;;;;;5013718;28;20564;-73
2021/06/26 02:13:32;;;;;;;14.90;13.47;;;15.40;99.90;;;;;;5008824;28;20219;-72
2021/06/26 02:15:57;;;;;;;15.97;14.57;;;15.40;99.90;;;;;;5011164;28;20185;-71
2021/06/26 02:18:23;;;;;;;15.90;14.40;;;15.30;99.90;;;;;;5018757;28;20714;-70
2021/06/26 02:20:49;;;;;;;14.50;13.20;;;15.30;99.90;;;;;;5016378;28;20211;-73
2021/06/26 02:23:14;;;;;;;16.27;14.80;;;15.30;99.90;;;;;;4997790;28;20212;-72
2021/06/26 02:25:40;;;;;;;16.07;14.70;;;15.20;99.90;;;;;;5001948;28;20258;-73
2021/06/26 02:28:06;;;;;;;15.40;14.10;;;15.20;99.90;;;;;;5014101;28;20215;-71
2021/06/26 02:30:31;;;;;;;15.70;14.30;;;15.10;99.90;;;;;;5011045;28;20420;-72
2021/06/26 02:32:57;;;;;;;16.90;15.20;;;15.10;99.90;;;;;;5005231;28;20208;-72
2021/06/26 02:35:23;;;;;;;18.40;13.40;;;15.10;99.90;;;;;;5003694;28;20239;-71
2021/06/26 02:37:48;;;;;;;15.17;13.77;;;15.10;99.90;;;;;;5019926;28;20198;-72
2021/06/26 02:40:14;;;;;;;15.37;14.03;;;15.10;99.90;;;;;;5016877;28;20862;-71
2021/06/26 02:42:40;;;;;;;15.57;14.20;;;15.00;99.90;;;;;;5009983;28;20203;-71
2021/06/26 02:45:07;;;;;;;15.40;13.90;;;15.00;99.90;;;;;;5014988;28;20520;-71
2021/06/26 02:47:33;;;;;;;15.17;13.87;;;15.00;99.90;;;;;;5012728;28;20434;-71
2021/06/26 02:49:58;;;;;;;15.67;14.17;;;15.00;99.90;;;;;;5006844;28;20430;-71
2021/06/26 02:52:24;;;;;;;17.10;15.00;;;15.00;99.90;;;;;;5009688;28;20238;-71
2021/06/26 02:54:50;;;;;;;16.80;15.30;;;14.90;99.90;;;;;;5002228;28;20192;-72
2021/06/26 02:57:16;;;;;;;15.77;14.37;;;14.90;99.90;;;;;;5011846;28;20249;-72
2021/06/26 02:59:44;;;;;;;17.33;15.83;;;14.90;99.90;;;;;;5013234;28;20322;-73
2021/06/26 03:02:10;;;;;;;15.73;14.13;;;14.80;99.90;;;;;;5000211;28;20450;-72
2021/06/26 03:04:36;;;;;;;16.27;14.87;;;14.80;99.90;;;;;;5015615;28;20422;-71
2021/06/26 03:07:02;;;;;;;15.20;13.80;;;14.80;99.90;;;;;;5007107;28;20426;-71
2021/06/26 03:09:27;;;;;;;17.53;15.23;;;14.80;99.90;;;;;;5015697;28;20551;-73
2021/06/26 03:11:53;;;;;;;15.80;13.90;;;14.70;99.90;;;;;;5007180;28;20434;-71
2021/06/26 03:14:18;;;;;;;15.93;14.50;;;14.70;99.90;;;;;;5016015;28;20210;-72
2021/06/26 03:16:44;;;;;;;14.70;13.50;;;14.70;99.90;;;;;;5016211;28;20556;-72
2021/06/26 03:19:10;;;;;;;16.20;14.60;;;14.70;99.90;;;;;;5007958;28;20197;-70
2021/06/26 03:21:35;;;;;;;15.77;14.30;;;14.60;99.90;;;;;;5014414;28;20218;-73
2021/06/26 03:24:01;;;;;;;15.13;13.63;;;14.60;99.90;;;;;;4997191;28;20197;-71
2021/06/26 03:26:27;;;;;;;16.27;14.60;;;14.60;99.90;;;;;;5013405;28;20271;-70
2021/06/26 03:28:52;;;;;;;15.23;14.00;;;14.60;99.90;;;;;;5007061;28;20233;-72
2021/06/26 03:31:18;;;;;;;15.93;14.47;;;14.50;99.90;;;;;;5007709;28;20195;-72
2021/06/26 03:33:45;;;;;;;14.87;13.43;;;14.50;99.90;;;;;;5001715;28;20279;-73
2021/06/26 03:36:11;;;;;;;15.93;14.30;;;14.50;99.90;;;;;;5001801;28;20497;-73
2021/06/26 03:38:36;;;;;;;17.30;15.63;;;14.50;99.90;;;;;;5009869;28;20427;-73
2021/06/26 03:41:02;;;;;;;15.63;14.03;;;14.60;99.90;;;;;;4999867;28;20208;-72
2021/06/26 03:43:27;;;;;;;15.63;14.23;;;14.50;99.90;;;;;;5013482;28;20208;-73
2021/06/26 03:45:54;;;;;;;15.73;14.13;;;14.50;99.90;;;;;;5016785;28;20188;-72
2021/06/26 03:48:19;;;;;;;17.50;15.90;;;14.50;99.90;;;;;;5004604;28;20678;-72
2021/06/26 03:50:45;;;;;;;16.20;14.60;;;14.50;99.90;;;;;;5002020;28;20439;-72
2021/06/26 03:53:11;;;;;;;14.70;13.20;;;14.50;99.90;;;;;;5008803;28;20711;-72
2021/06/26 03:55:36;;;;;;;15.27;13.87;;;14.50;99.90;;;;;;5014194;28;20191;-72
2021/06/26 03:58:02;;;;;;;16.43;14.80;;;14.60;99.90;;;;;;5014762;28;20190;-72
2021/06/26 04:00:28;;;;;;;15.20;13.80;;;14.50;99.90;;;;;;5003091;28;20248;-71
2021/06/26 04:02:53;;;;;;;16.30;14.80;;;14.50;99.90;;;;;;5009850;28;20696;-71
2021/06/26 04:05:19;;;;;;;15.07;13.60;;;14.60;99.90;;;;;;5014008;28;20702;-71
2021/06/26 04:07:45;;;;;;;14.50;13.07;;;14.60;99.90;;;;;;5011129;28;20184;-71
2021/06/26 04:10:11;;;;;;;16.53;14.77;;;14.60;99.90;;;;;;5013001;28;20562;-73
2021/06/26 04:12:36;;;;;;;16.50;15.00;;;14.60;99.90;;;;;;5016941;28;20293;-72
2021/06/26 04:15:02;;;;;;;14.77;13.50;;;14.60;99.90;;;;;;5010009;28;20947;-73
2021/06/26 04:17:28;;;;;;;15.87;14.37;;;14.60;99.90;;;;;;5012843;28;20184;-73
2021/06/26 04:19:53;;;;;;;14.67;13.17;;;14.70;99.90;;;;;;5007084;28;20653;-72
2021/06/26 04:22:19;;;;;;;14.27;12.97;;;14.70;99.90;;;;;;5005220;28;20216;-72
2021/06/26 04:24:44;;;;;;;14.70;13.30;;;14.80;99.90;;;;;;5018787;28;20242;-73
2021/06/26 04:27:10;;;;;;;16.27;14.77;;;14.80;99.90;;;;;;5018142;28;20571;-72
2021/06/26 04:29:35;;;;;;;14.93;13.63;;;14.80;99.90;;;;;;5012274;28;20190;-72
2021/06/26 04:32:01;;;;;;;14.27;12.87;;;14.90;99.90;;;;;;5007716;28;20177;-72
2021/06/26 04:34:27;;;;;;;16.00;14.60;;;14.90;99.90;;;;;;5017485;28;20211;-72
2021/06/26 04:36:53;;;;;;;15.90;14.40;;;15.00;99.90;;;;;;5017957;28;20203;-71
2021/06/26 04:39:19;;;;;;;17.43;15.87;;;15.00;99.90;;;;;;5012354;28;20320;-72
2021/06/26 04:41:44;;;;;;;15.83;14.30;;;15.10;99.90;;;;;;5003765;28;20470;-72
2021/06/26 04:44:10;;;;;;;15.97;14.50;;;15.20;99.90;;;;;;5000919;28;20578;-72
2021/06/26 04:46:36;;;;;;;17.37;15.77;;;15.20;99.90;;;;;;5015703;28;20193;-72
2021/06/26 04:49:03;;;;;;;15.70;14.20;;;15.30;99.90;;;;;;5011518;28;20644;-72
2021/06/26 04:51:29;;;;;;;17.53;15.87;;;15.40;99.90;;;;;;5018436;28;20441;-71
2021/06/26 04:53:55;;;;;;;17.53;15.73;;;15.50;99.90;;;;;;5011099;28;20535;-71
2021/06/26 04:56:20;;;;;;;18.20;16.50;;;15.60;99.90;;;;;;5019850;28;20229;-70
2021/06/26 04:58:46;;;;;;;19.17;17.27;;;15.60;99.90;;;;;;5016350;28;20676;-72
2021/06/26 05:01:11;;;;;;;18.43;16.73;;;15.70;99.90;;;;;;4999920;28;20274;-71
2021/06/26 05:03:39;;;;;;;20.03;18.30;;;15.80;99.90;;;;;;5002706;28;20208;-71
2021/06/26 05:06:05;;;;;;;18.57;16.77;;;15.80;99.90;;;;;;4999247;28;20172;-71
2021/06/26 05:08:31;;;;;;;20.20;18.30;;;15.90;99.90;;;;;;5003292;28;20442;-71
2021/06/26 05:10:56;;;;;;;19.37;17.60;;;16.00;99.90;;;;;;5021147;28;20188;-71
2021/06/26 05:13:22;;;;;;;18.83;17.03;;;16.10;99.90;;;;;;5028935;28;20961;-70
2021/06/26 05:15:48;;;;;;;21.20;19.00;;;16.20;99.90;;;;;;5016474;28;20188;-71
2021/06/26 05:18:13;;;;;;;20.30;18.30;;;16.20;99.90;;;;;;5017887;28;20667;-72
2021/06/26 05:20:39;;;;;;;19.90;17.80;;;16.40;99.90;;;;;;5020793;28;20199;-72
2021/06/26 05:23:12;;;;;;;19.10;17.27;;;16.40;99.90;;;;;;4998406;28;20219;-71
2021/06/26 05:25:38;;;;;;;20.47;18.67;;;16.60;99.90;;;;;;5020587;28;20211;-71
2021/06/26 05:28:03;;;;;;;19.90;18.00;;;16.60;99.90;;;;;;5018548;28;20410;-73
2021/06/26 05:30:29;;;;;;;20.27;18.30;;;16.60;99.90;;;;;;5021388;28;20526;-71
2021/06/26 05:32:54;;;;;;;20.37;18.47;;;16.70;99.90;;;;;;5005624;28;20212;-70
2021/06/26 05:35:20;;;;;;;21.40;19.40;;;16.70;99.90;;;;;;5014923;28;20199;-71
2021/06/26 05:37:46;;;;;;;20.37;18.27;;;16.80;99.90;;;;;;5022158;28;20233;-70
2021/06/26 05:40:12;;;;;;;19.33;17.40;;;16.90;99.90;;;;;;5020140;28;20204;-71
2021/06/26 05:42:38;;;;;;;19.67;17.83;;;17.00;99.90;;;;;;5025707;28;20437;-74
2021/06/26 05:45:05;;;;;;;20.43;18.43;;;17.00;99.90;;;;;;5013052;28;20437;-72
2021/06/26 05:47:30;;;;;;;20.20;18.30;;;17.20;99.90;;;;;;5024925;28;20218;-74
2021/06/26 05:49:56;;;;;;;19.77;17.90;;;17.20;99.90;;;;;;5011914;28;20489;-72
2021/06/26 05:52:22;;;;;;;19.80;17.87;;;17.20;99.90;;;;;;5009363;28;20193;-72
2021/06/26 05:54:47;;;;;;;19.77;17.77;;;17.30;99.90;;;;;;5015771;28;20184;-70
2021/06/26 05:57:13;;;;;;;20.20;18.27;;;17.30;99.90;;;;;;5007648;28;20204;-74
2021/06/26 05:59:38;;;;;;;19.23;17.40;;;17.40;99.90;;;;;;5011228;28;20187;-71
2021/06/26 06:02:04;;;;;;;21.93;19.80;;;17.50;99.90;;;;;;5004294;28;20180;-72
2021/06/26 06:04:29;;;;;;;19.23;17.57;;;17.60;99.90;;;;;;4994708;28;20258;-71
2021/06/26 06:06:55;;;;;;;19.43;17.63;;;17.70;99.90;;;;;;5007608;28;20181;-70
2021/06/26 06:09:21;;;;;;;18.07;16.47;;;17.80;99.90;;;;;;5015452;28;20179;-71
2021/06/26 06:11:46;;;;;;;19.93;18.13;;;17.90;99.90;;;;;;5006485;28;20190;-71
2021/06/26 06:14:12;;;;;;;20.43;18.43;;;18.00;99.90;;;;;;5012413;28;20208;-70
2021/06/26 06:16:38;;;;;;;19.80;17.90;;;18.10;99.90;;;;;;5008839;28;20196;-71
2021/06/26 06:19:03;;;;;;;18.63;16.83;;;18.10;99.90;;;;;;5004740;28;20623;-71
2021/06/26 06:21:29;;;;;;;18.23;16.40;;;18.30;99.90;;;;;;5009533;28;20655;-70
2021/06/26 06:23:54;;;;;;;18.83;17.13;;;18.40;99.90;;;;;;4998191;28;20618;-70
2021/06/26 06:26:20;;;;;;;18.60;16.90;;;18.30;99.90;;;;;;5017621;28;20179;-71
2021/06/26 06:28:46;;;;;;;18.50;16.80;;;18.30;99.90;;;;;;5010597;28;20188;-71
2021/06/26 06:31:13;;;;;;;19.20;17.30;;;18.40;99.90;;;;;;5005873;28;20195;-70
2021/06/26 06:33:38;;;;;;;18.17;16.47;;;18.50;99.90;;;;;;5014541;28;20559;-70
2021/06/26 06:36:07;;;;;;;16.37;14.63;;;18.60;99.90;;;;;;5012854;28;20453;-70
2021/06/26 06:38:33;;;;;;;17.33;15.73;;;18.60;99.90;;;;;;5018379;28;20199;-70
2021/06/26 06:40:58;;;;;;;17.07;15.53;;;18.80;99.90;;;;;;5007247;28;20473;-71
2021/06/26 06:43:24;;;;;;;15.13;13.77;;;18.90;99.90;;;;;;4998835;28;20453;-71
2021/06/26 06:45:50;;;;;;;16.00;14.60;;;19.00;99.90;;;;;;5010291;28;20183;-70
2021/06/26 06:48:15;;;;;;;14.00;12.70;;;19.00;99.90;;;;;;5016481;28;20183;-71
2021/06/26 06:50:41;;;;;;;15.23;13.90;;;19.10;99.90;;;;;;5013457;28;20240;-78
2021/06/26 06:53:07;;;;;;;14.23;12.93;;;19.20;99.90;;;;;;5021236;28;20267;-78
2021/06/26 06:55:32;;;;;;;15.63;14.10;;;19.30;99.90;;;;;;5016513;28;20277;-77
2021/06/26 06:57:58;;;;;;;15.90;14.50;;;19.40;99.90;;;;;;5012121;28;20482;-77
2021/06/26 07:00:24;;;;;;;13.83;12.60;;;19.50;99.90;;;;;;5012966;28;20212;-78
2021/06/26 07:02:49;;;;;;;15.07;13.77;;;19.60;99.90;;;;;;5006217;28;20212;-77
2021/06/26 07:05:15;;;;;;;14.33;13.13;;;19.60;99.90;;;;;;5016003;28;20191;-77
2021/06/26 07:07:41;;;;;;;15.00;13.60;;;19.80;99.90;;;;;;5010152;28;20237;-78
2021/06/26 07:10:07;;;;;;;14.53;13.20;;;19.80;99.90;;;;;;5016788;28;20191;-77
2021/06/26 07:12:33;;;;;;;14.93;13.70;;;19.90;99.90;;;;;;5004269;28;20219;-76
2021/06/26 07:14:58;;;;;;;14.57;13.33;;;20.00;99.90;;;;;;5014910;28;20520;-76
2021/06/26 07:17:24;;;;;;;15.77;14.17;;;19.90;99.90;;;;;;5010657;28;20505;-77
2021/06/26 07:19:50;;;;;;;15.33;13.73;;;19.90;99.90;;;;;;5013940;28;20183;-77
2021/06/26 07:22:15;;;;;;;16.60;15.03;;;19.90;99.90;;;;;;5008778;28;20274;-77
2021/06/26 07:24:41;;;;;;;16.53;15.00;;;19.90;99.90;;;;;;5016947;28;20183;-76
2021/06/26 07:27:07;;;;;;;14.43;13.30;;;20.00;99.90;;;;;;5015915;28;20222;-76
2021/06/26 07:29:33;;;;;;;14.50;13.20;;;20.10;99.90;;;;;;5004987;28;20196;-77
2021/06/26 07:31:58;;;;;;;14.77;13.17;;;20.10;99.90;;;;;;5017325;28;20440;-77
2021/06/26 07:34:24;;;;;;;13.43;12.33;;;20.10;99.90;;;;;;5013621;28;20240;-77
2021/06/26 07:36:49;;;;;;;12.67;11.60;;;20.10;99.90;;;;;;5003672;28;20267;-76
2021/06/26 07:39:15;;;;;;;12.07;10.97;;;20.10;99.90;;;;;;5021867;28;20232;-76
2021/06/26 07:41:41;;;;;;;12.20;11.10;;;20.30;99.90;;;;;;5012506;28;20211;-77
2021/06/26 07:44:06;;;;;;;11.03;10.23;;;20.40;99.90;;;;;;4998173;28;20212;-79
2021/06/26 07:46:32;;;;;;;10.90;9.90;;;20.50;99.90;;;;;;5019160;28;20648;-76
2021/06/26 07:48:57;;;;;;;11.13;9.93;;;20.50;99.90;;;;;;5010736;28;20192;-77
2021/06/26 07:51:23;;;;;;;9.27;8.47;;;20.60;99.90;;;;;;5017584;28;20226;-77
2021/06/26 07:53:49;;;;;;;10.23;9.33;;;20.70;99.90;;;;;;5008777;28;20204;-77
2021/06/26 07:56:14;;;;;;;9.77;8.97;;;20.80;99.90;;;;;;5014267;28;20194;-77
2021/06/26 07:58:40;;;;;;;8.23;7.60;;;20.80;99.90;;;;;;5018385;28;20605;-78
2021/06/26 08:01:05;;;;;;;8.40;7.60;;;21.00;99.90;;;;;;4995165;28;20200;-77
2021/06/26 08:03:31;;;;;;;9.63;8.73;;;21.00;99.90;;;;;;5022392;28;20196;-77
2021/06/26 08:05:57;;;;;;;8.10;7.40;;;21.20;99.90;;;;;;5015204;28;20556;-78
2021/06/26 08:08:22;;;;;;;10.10;9.20;;;21.20;99.90;;;;;;5012429;28;20243;-76
2021/06/26 08:10:49;;;;;;;8.97;8.17;;;21.20;99.90;;;;;;5015789;28;20219;-77
2021/06/26 08:13:15;;;;;;;9.77;8.87;;;21.20;99.90;;;;;;5018467;28;20596;-76
2021/06/26 08:15:42;;;;;;;9.37;8.77;;;21.30;99.90;;;;;;5010228;28;20429;-77
2021/06/26 08:18:10;;;;;;;9.80;8.90;;;21.30;99.90;;;;;;5016228;28;20673;-77
2021/06/26 08:20:36;;;;;;;9.30;8.50;;;21.30;99.90;;;;;;5019862;28;20596;-76
2021/06/26 08:23:03;;;;;;;9.13;8.43;;;21.30;99.90;;;;;;5000617;28;20469;-77
2021/06/26 08:25:29;;;;;;;8.30;7.70;;;21.30;99.90;;;;;;5010331;28;20867;-77
2021/06/26 08:27:55;;;;;;;8.60;7.80;;;21.30;99.90;;;;;;5017415;28;20782;-76
2021/06/26 08:30:21;;;;;;;8.47;7.80;;;21.40;99.90;;;;;;5020296;28;20430;-79
2021/06/26 08:32:47;;;;;;;8.63;8.03;;;21.40;99.90;;;;;;5010888;28;20209;-77
2021/06/26 08:35:13;;;;;;;8.53;7.90;;;21.40;99.90;;;;;;5006514;28;20509;-78
2021/06/26 08:37:42;;;;;;;8.10;7.40;;;21.50;99.90;;;;;;5011062;28;20191;-78
2021/06/26 08:40:08;;;;;;;7.97;7.40;;;21.60;99.90;;;;;;5019336;28;20545;-78
2021/06/26 08:42:34;;;;;;;7.23;6.67;;;21.60;99.90;;;;;;5013338;28;20445;-77
2021/06/26 08:45:10;;;;;;;7.70;7.00;;;21.70;99.90;;;;;;5016432;28;20922;-78
2021/06/26 08:47:36;;;;;;;7.40;6.70;;;21.90;99.90;;;;;;5019354;28;20184;-78
2021/06/26 08:50:03;;;;;;;7.17;6.67;;;22.10;99.90;;;;;;5012509;28;20509;-78
2021/06/26 08:52:28;;;;;;;7.50;6.80;;;22.30;99.90;;;;;;5006856;28;20461;-78
2021/06/26 08:54:55;;;;;;;10.50;6.97;;;22.50;99.90;;;;;;5021292;28;20458;-79
2021/06/26 08:57:31;;;;;;;7.83;7.17;;;22.70;99.90;;;;;;5013398;28;20198;-77
2021/06/26 08:59:58;;;;;;;7.43;6.73;;;22.80;99.90;;;;;;5020356;28;20501;-77
2021/06/26 09:02:26;;;;;;;7.73;6.43;;;22.80;99.90;;;;;;5011878;28;20436;-77
2021/06/26 09:04:51;;;;;;;7.67;6.97;;;22.80;99.90;;;;;;5020781;28;20508;-78
2021/06/26 09:07:35;;;;;;;7.00;6.40;;;22.60;99.90;;;;;;5006858;28;20966;-77
2021/06/26 09:10:16;;;;;;;7.10;6.50;;;22.60;99.90;;;;;;5019086;28;20179;-78
2021/06/26 09:12:43;;;;;;;6.07;5.63;;;22.80;99.90;;;;;;5015479;28;20454;-78
2021/06/26 09:15:10;;;;;;;6.30;5.80;;;23.00;99.90;;;;;;5020649;28;20426;-78
2021/06/26 09:17:36;;;;;;;6.10;5.50;;;23.20;99.90;;;;;;5015376;28;20442;-79
2021/06/26 09:20:07;;;;;;;6.30;5.80;;;23.30;99.90;;;;;;5016524;28;20556;-78
2021/06/26 09:22:41;;;;;;;5.93;5.53;;;23.40;99.90;;;;;;5003994;28;21006;-77
2021/06/26 09:25:35;;;;;;;5.43;5.13;;;23.40;99.90;;;;;;5003693;28;20514;-78
2021/06/26 09:28:11;;;;;;;6.47;5.87;;;23.60;99.90;;;;;;5019520;28;20423;-78
2021/06/26 09:30:43;;;;;;;6.00;5.40;;;23.50;99.90;;;;;;5004080;28;20519;-78
2021/06/26 09:33:14;;;;;;;5.03;4.73;;;23.40;99.90;;;;;;5004970;28;20463;-78
2021/06/26 09:35:40;;;;;;;6.37;5.87;;;23.40;99.90;;;;;;5023377;28;20859;-78
2021/06/26 09:38:08;;;;;;;6.97;6.37;;;23.40;99.90;;;;;;5012668;28;20510;-78
2021/06/26 09:40:33;;;;;;;6.50;5.90;;;23.40;99.90;;;;;;5016009;28;20458;-78
2021/06/26 09:42:59;;;;;;;6.60;6.10;;;23.40;99.90;;;;;;5019857;28;20842;-78
2021/06/26 09:45:25;;;;;;;6.90;6.30;;;23.30;99.90;;;;;;5020781;28;20183;-79
2021/06/26 09:47:50;;;;;;;6.73;6.23;;;23.40;99.90;;;;;;5019679;28;20621;-79
2021/06/26 09:50:24;;;;;;;7.13;6.57;;;23.40;99.90;;;;;;5010597;28;20191;-78
2021/06/26 09:52:51;;;;;;;6.13;5.73;;;23.50;99.90;;;;;;5013260;28;20207;-78
2021/06/26 09:55:34;;;;;;;6.20;5.70;;;23.70;99.90;;;;;;5018325;28;20421;-77
2021/06/26 09:58:11;;;;;;;6.10;5.60;;;24.00;99.90;;;;;;5024475;28;20780;-80
2021/06/26 10:00:40;;;;;;;5.87;5.47;;;24.30;99.90;;;;;;5021112;28;20465;-79
2021/06/26 10:03:06;;;;;;;5.60;5.20;;;24.50;99.90;;;;;;5011926;28;20457;-79
2021/06/26 10:05:32;;;;;;;5.37;4.87;;;24.50;99.90;;;;;;5003161;28;20514;-79
2021/06/26 10:08:04;;;;;;;5.70;5.30;;;24.50;99.90;;;;;;5021774;28;20186;-79
2021/06/26 10:10:30;;;;;;;5.07;4.77;;;24.70;99.90;;;;;;5013180;28;20430;-79
2021/06/26 10:12:56;;;;;;;5.93;5.43;;;24.80;99.90;;;;;;5002279;28;20452;-78
2021/06/26 10:15:24;;;;;;;5.33;4.93;;;24.90;99.90;;;;;;5025737;28;20844;-79
2021/06/26 10:17:50;;;;;;;5.40;5.00;;;25.10;99.90;;;;;;5027188;28;20419;-80
2021/06/26 10:20:17;;;;;;;5.90;5.30;;;25.00;99.90;;;;;;5023039;28;20481;-80
2021/06/26 10:22:51;;;;;;;6.17;5.60;;;24.80;99.90;;;;;;5009401;28;20731;-79
2021/06/26 10:25:17;;;;;;;5.80;5.40;;;24.40;99.90;;;;;;5019992;28;20461;-79
2021/06/26 10:27:44;;;;;;;6.23;5.60;;;24.30;99.90;;;;;;5019228;28;20416;-80
2021/06/26 10:30:15;;;;;;;5.87;5.47;;;24.40;99.90;;;;;;5010738;28;20466;-79
2021/06/26 10:32:54;;;;;;;6.83;6.33;;;24.30;99.90;;;;;;5028866;28;20462;-79
2021/06/26 10:35:21;;;;;;;7.03;5.90;;;24.30;99.90;;;;;;5023357;28;21392;-79
2021/06/26 10:37:57;;;;;;;7.50;6.90;;;24.20;99.90;;;;;;5025515;28;20433;-79
2021/06/26 10:40:41;;;;;;;8.03;7.33;;;24.40;99.90;;;;;;5018978;28;20485;-79
2021/06/26 10:43:18;;;;;;;7.20;6.70;;;24.30;99.90;;;;;;5003172;28;21050;-80
2021/06/26 10:45:45;;;;;;;6.83;6.27;;;24.40;99.90;;;;;;5015476;28;20453;-80
2021/06/26 10:48:29;;;;;;;7.23;6.73;;;24.50;99.90;;;;;;5017258;28;20557;-79
2021/06/26 10:50:56;;;;;;;7.60;6.23;;;24.40;99.90;;;;;;5022137;28;20416;-80
2021/06/26 10:53:24;;;;;;;6.63;6.13;;;24.40;99.90;;;;;;5014962;28;20986;-79
2021/06/26 10:56:14;;;;;;;6.80;6.20;;;24.40;99.90;;;;;;5024373;28;20930;-79
2021/06/26 10:58:42;;;;;;;6.07;5.67;;;24.50;99.90;;;;;;5012994;28;20439;-79
2021/06/26 11:01:17;;;;;;;6.87;6.33;;;24.60;99.90;;;;;;5011942;28;20871;-78
2021/06/26 11:03:45;;;;;;;6.20;5.70;;;25.00;99.90;;;;;;5013941;28;21058;-78
2021/06/26 11:06:26;;;;;;;6.43;5.97;;;25.20;99.90;;;;;;5018211;28;20433;-79
2021/06/26 11:09:06;;;;;;;5.77;5.37;;;25.40;99.90;;;;;;5021037;28;20427;-80
2021/06/26 11:11:39;;;;;;;6.30;5.80;;;25.50;99.90;;;;;;5001840;28;20418;-79
2021/06/26 11:14:20;;;;;;;6.83;6.30;;;25.60;99.90;;;;;;5013472;28;20987;-79
2021/06/26 11:16:55;;;;;;;6.47;5.87;;;25.60;99.90;;;;;;5009641;28;20434;-79
2021/06/26 11:19:23;;;;;;;6.00;5.60;;;25.60;99.90;;;;;;5015825;28;20945;-80
2021/06/26 11:21:51;;;;;;;6.30;5.80;;;25.60;99.90;;;;;;5012636;28;20467;-79
2021/06/26 11:24:18;;;;;;;6.63;6.13;;;25.70;99.90;;;;;;5013758;28;20446;-79
2021/06/26 11:26:46;;;;;;;7.37;6.80;;;25.80;99.90;;;;;;5032224;28;20434;-80
2021/06/26 11:29:36;;;;;;;6.47;5.80;;;25.70;99.90;;;;;;5020304;28;20467;-79
2021/06/26 11:32:27;;;;;;;6.13;5.70;;;25.90;99.90;;;;;;5030489;28;20512;-79
2021/06/26 11:34:53;;;;;;;6.77;6.00;;;25.60;99.90;;;;;;5000955;28;20428;-79
2021/06/26 11:37:19;;;;;;;6.23;5.73;;;25.60;99.90;;;;;;5010380;28;20436;-80
2021/06/26 11:39:45;;;;;;;6.37;5.87;;;25.70;99.90;;;;;;5032317;28;20447;-79
2021/06/26 11:42:18;;;;;;;6.30;5.80;;;25.90;99.90;;;;;;5021749;28;20681;-79
2021/06/26 11:44:44;;;;;;;6.30;5.83;;;26.00;99.90;;;;;;5023902;28;20194;-80
2021/06/26 11:47:10;;;;;;;7.10;6.50;;;26.10;99.90;;;;;;5028754;28;20426;-79
2021/06/26 11:49:38;;;;;;;6.67;6.17;;;26.10;99.90;;;;;;5029911;28;20198;-79
2021/06/26 11:52:06;;;;;;;7.70;7.20;;;26.00;99.90;;;;;;5026146;28;20460;-79
2021/06/26 11:54:31;;;;;;;6.77;6.27;;;26.00;99.90;;;;;;5019916;28;20828;-78
2021/06/26 11:56:57;;;;;;;8.20;7.50;;;25.90;99.90;;;;;;5020399;28;20436;-80
2021/06/26 11:59:23;;;;;;;7.30;6.70;;;25.60;99.90;;;;;;5021866;28;20179;-79
2021/06/26 12:01:50;;;;;;;6.90;6.30;;;25.60;99.90;;;;;;5022772;28;20753;-79
2021/06/26 12:04:28;;;;;;;7.07;6.53;;;25.70;99.90;;;;;;5019902;28;20461;-79
2021/06/26 12:06:53;;;;;;;8.10;7.40;;;25.80;99.90;;;;;;5021173;28;20429;-80
2021/06/26 12:09:24;;;;;;;8.13;7.43;;;25.80;99.90;;;;;;5010865;28;20431;-78
2021/06/26 12:11:50;;;;;;;7.17;6.63;;;26.10;99.90;;;;;;5021734;28;20275;-80
2021/06/26 12:14:25;;;;;;;6.83;6.33;;;26.40;99.90;;;;;;5003657;28;20516;-79
2021/06/26 12:16:53;;;;;;;7.13;6.50;;;26.50;99.90;;;;;;5028860;28;20477;-79
2021/06/26 12:19:30;;;;;;;6.93;6.33;;;26.70;99.90;;;;;;5026492;28;20470;-79
2021/06/26 12:21:56;;;;;;;6.90;6.40;;;27.10;99.90;;;;;;5012342;28;20489;-78
2021/06/26 12:24:35;;;;;;;6.43;5.93;;;27.20;99.90;;;;;;5021270;28;20818;-80
2021/06/26 12:27:11;;;;;;;7.67;7.07;;;27.00;99.90;;;;;;5021393;28;20663;-79
2021/06/26 12:29:42;;;;;;;6.50;6.10;;;26.70;99.90;;;;;;5019776;28;20493;-79
2021/06/26 12:32:07;;;;;;;6.13;5.70;;;26.50;99.90;;;;;;5022573;28;20419;-79
2021/06/26 12:34:43;;;;;;;7.30;6.10;;;26.40;99.90;;;;;;5016781;28;20435;-80